Time;durP1;ratioP1;P1;durP2;ratioP2;P2;SDS_P1;SDS_P2;PMS_P1;PMS_P2;Temp;Humidity;BMP_temperature;BMP_pressure;BME280_temperature;BME280_humidity;BME280_pressure;Samples;Min_cycle;Max_cycle;Signal;HPM_P1;HPM_P2
2022/04/25 00:00:02;;;;;;;;;;;;;;;5.62;80.60;97345.71;108790;1271;22531;-73
2022/04/25 00:02:29;;;;;;;;;;;;;;;5.65;80.58;97346.70;108785;1270;22502;-72
2022/04/25 00:04:56;;;;;;;;;;;;;;;5.67;80.56;97352.23;108803;1271;22503;-73
2022/04/25 00:07:23;;;;;;;;;;;;;;;5.70;81.17;97352.96;108768;1269;22508;-74
2022/04/25 00:09:50;;;;;;;;;;;;;;;5.70;81.33;97355.34;108800;1271;22538;-73
2022/04/25 00:12:17;;;;;;;;;;;;;;;5.71;81.51;97356.72;108832;1271;22587;-78
2022/04/25 00:14:44;;;;;;;;;;;;;;;5.70;81.47;97358.45;108766;1271;22509;-75
2022/04/25 00:17:11;;;;;;;;;;;;;;;5.70;81.56;97358.66;108815;1271;22543;-76
2022/04/25 00:19:38;;;;;;;;;;;;;;;5.71;81.00;97357.20;108839;1270;22608;-77
2022/04/25 00:22:05;;;;;;;;;;;;;;;5.73;80.77;97357.92;108798;1271;22600;-78
2022/04/25 00:24:31;;;;;;;;;;;;;;;5.72;81.04;97354.89;108811;1270;22518;-74
2022/04/25 00:26:58;;;;;;;;;;;;;;;5.70;81.34;97351.05;108706;1270;22524;-72
2022/04/25 00:29:25;;;;;;;;;;;;;;;5.67;81.27;97350.89;108551;1271;22505;-72
2022/04/25 00:31:52;;;;;;;;;;;;;;;5.63;81.22;97357.05;108538;1271;25298;-74
2022/04/25 00:34:19;;;;;;;;;;;;;;;5.56;81.30;97353.66;108466;1271;22531;-72
2022/04/25 00:36:46;;;;;;;;;;;;;;;5.50;81.09;97348.58;108579;1270;22527;-74
2022/04/25 00:39:13;;;;;;;;;;;;;;;5.43;81.29;97349.86;108554;1271;22583;-73
2022/04/25 00:41:39;;;;;;;;;;;;;;;5.38;80.94;97349.34;108581;1270;25302;-71
2022/04/25 00:44:06;;;;;;;;;;;;;;;5.33;80.63;97347.94;108581;1271;22515;-72
2022/04/25 00:46:35;;;;;;;;;;;;;;;5.29;80.76;97345.06;108582;1271;24152;-73
2022/04/25 00:49:02;;;;;;;;;;;;;;;5.27;81.16;97344.89;108585;1270;22585;-75
2022/04/25 00:51:28;;;;;;;;;;;;;;;5.22;81.36;97350.88;108592;1271;22690;-73
2022/04/25 00:53:55;;;;;;;;;;;;;;;5.16;81.39;97358.70;108572;1269;22587;-78
2022/04/25 00:56:24;;;;;;;;;;;;;;;5.11;81.33;97362.47;108586;1270;22660;-71
2022/04/25 00:58:51;;;;;;;;;;;;;;;5.06;81.27;97362.95;108630;1271;22565;-75
2022/04/25 01:01:18;;;;;;;;;;;;;;;5.04;81.09;97358.11;108602;1271;22727;-77
2022/04/25 01:03:45;;;;;;;;;;;;;;;5.01;81.02;97357.23;108563;1271;22665;-74
2022/04/25 01:06:12;;;;;;;;;;;;;;;4.97;80.82;97356.95;108553;1270;22538;-74
2022/04/25 01:08:39;;;;;;;;;;;;;;;4.95;81.26;97354.55;108607;1270;22507;-74
2022/04/25 01:11:06;;;;;;;;;;;;;;;4.89;81.59;97355.23;108597;1271;23803;-76
2022/04/25 01:13:33;;;;;;;;;;;;;;;4.80;81.67;97356.83;108538;1271;22645;-72
2022/04/25 01:16:00;;;;;;;;;;;;;;;4.74;81.60;97357.73;108545;1271;22535;-73
2022/04/25 01:18:27;;;;;;;;;;;;;;;4.68;81.51;97358.60;108574;1270;23110;-73
2022/04/25 01:20:56;;;;;;;;;;;;;;;4.64;81.23;97361.09;108571;1271;22600;-75
2022/04/25 01:28:58;;;;;;;;;;;;;;;4.61;80.90;97365.45;108567;1269;22515;-73
2022/04/25 01:31:25;;;;;;;;;;;;;;;4.59;81.33;97364.34;108582;1271;22554;-71
2022/04/25 01:33:52;;;;;;;;;;;;;;;4.56;81.76;97362.48;108595;1269;22496;-72
2022/04/25 01:36:23;;;;;;;;;;;;;;;4.53;81.82;97360.40;108546;1271;22569;-75
2022/04/25 01:38:51;;;;;;;;;;;;;;;4.50;81.72;97357.61;108576;1271;22525;-73
2022/04/25 01:41:18;;;;;;;;;;;;;;;4.46;81.13;97358.38;108560;1270;22664;-75
2022/04/25 01:43:45;;;;;;;;;;;;;;;4.43;81.23;97361.00;108563;1271;22503;-74
2022/04/25 01:46:12;;;;;;;;;;;;;;;4.42;81.20;97359.48;108654;1271;22535;-72
2022/04/25 01:48:39;;;;;;;;;;;;;;;4.41;81.13;97360.23;108604;1269;22782;-74
2022/04/25 01:51:06;;;;;;;;;;;;;;;4.38;81.52;97368.00;108570;1271;22520;-77
2022/04/25 01:53:33;;;;;;;;;;;;;;;4.33;81.50;97370.91;108579;1271;22687;-76
2022/04/25 01:56:00;;;;;;;;;;;;;;;4.30;81.38;97367.64;108568;1271;22510;-74
2022/04/25 01:58:27;;;;;;;;;;;;;;;4.25;81.53;97364.34;108393;1271;259008;-71
2022/04/25 02:00:54;;;;;;;;;;;;;;;4.20;81.18;97364.79;108597;1271;22514;-74
2022/04/25 02:03:21;;;;;;;;;;;;;;;4.16;81.02;97364.35;108543;1271;22539;-71
2022/04/25 02:05:48;;;;;;;;;;;;;;;4.15;80.71;97366.27;108553;1271;22586;-72
2022/04/25 02:08:15;;;;;;;;;;;;;;;4.14;80.90;97364.96;108590;1271;25308;-73
2022/04/25 02:11:19;;;;;;;;;;;;;;;4.12;80.99;97366.30;108578;1270;22610;-76
2022/04/25 02:13:28;;;;;;;;;;;;;;;4.10;81.22;97370.54;108579;1271;22681;-71
2022/04/25 02:18:43;;;;;;;;;;;;;;;4.04;81.53;97374.86;104739;1266;939256;-72
2022/04/25 02:21:10;;;;;;;;;;;;;;;4.02;81.77;97375.05;108043;1279;25371;-73
2022/04/25 02:23:37;;;;;;;;;;;;;;;3.99;81.53;97369.16;107979;1279;22524;-72
2022/04/25 02:26:05;;;;;;;;;;;;;;;3.97;81.02;97370.13;108019;1279;22528;-73
2022/04/25 02:28:33;;;;;;;;;;;;;;;3.99;81.00;97374.16;108055;1279;22511;-75
2022/04/25 02:31:01;;;;;;;;;;;;;;;3.99;81.07;97369.48;108072;1278;22790;-72
2022/04/25 02:33:28;;;;;;;;;;;;;;;3.99;81.31;97368.11;108056;1279;22534;-74
2022/04/25 02:35:55;;;;;;;;;;;;;;;4.00;81.40;97369.45;107972;1279;22540;-76
2022/04/25 02:38:22;;;;;;;;;;;;;;;3.98;81.68;97368.17;107949;1279;22542;-73
2022/04/25 02:41:04;;;;;;;;;;;;;;;3.95;81.47;97370.55;107914;1279;22601;-72
2022/04/25 02:43:35;;;;;;;;;;;;;;;3.93;81.37;97373.83;107889;1279;22530;-73
2022/04/25 02:46:02;;;;;;;;;;;;;;;3.90;81.20;97372.77;107955;1279;22635;-72
2022/04/25 02:48:29;;;;;;;;;;;;;;;3.90;80.99;97372.45;107953;1279;22578;-73
2022/04/25 02:50:57;;;;;;;;;;;;;;;3.88;81.21;97375.63;107971;1279;23020;-77
2022/04/25 02:53:25;;;;;;;;;;;;;;;3.86;81.31;97378.88;108062;1279;22555;-77
2022/04/25 02:55:53;;;;;;;;;;;;;;;3.84;81.54;97381.59;108061;1279;22534;-77
2022/04/25 02:58:20;;;;;;;;;;;;;;;3.80;81.59;97382.86;108073;1279;24096;-72
2022/04/25 03:00:47;;;;;;;;;;;;;;;3.75;81.70;97386.19;108038;1279;22603;-75
2022/04/25 03:03:15;;;;;;;;;;;;;;;3.72;81.58;97386.04;108060;1278;22648;-72
2022/04/25 03:05:43;;;;;;;;;;;;;;;3.69;81.41;97385.19;108078;1279;22575;-72
2022/04/25 03:08:11;;;;;;;;;;;;;;;3.67;81.28;97384.24;108039;1279;22675;-72
2022/04/25 03:10:38;;;;;;;;;;;;;;;3.68;80.88;97383.19;108197;1279;23336;-71
2022/04/25 03:13:08;;;;;;;;;;;;;;;3.69;81.14;97384.15;108078;1279;23192;-72
2022/04/25 03:15:38;;;;;;;;;;;;;;;3.70;81.15;97387.17;108080;1279;22641;-71
2022/04/25 03:18:12;;;;;;;;;;;;;;;3.71;81.44;97386.44;107991;1279;22544;-72
2022/04/25 03:20:39;;;;;;;;;;;;;;;3.71;81.79;97387.67;107929;1279;22697;-71
2022/04/25 03:23:06;;;;;;;;;;;;;;;3.70;81.60;97393.02;107979;1279;22556;-72
2022/04/25 03:25:33;;;;;;;;;;;;;;;3.70;81.49;97395.65;107959;1279;22570;-72
2022/04/25 03:28:00;;;;;;;;;;;;;;;3.67;81.39;97397.53;107959;1279;22692;-72
2022/04/25 03:30:28;;;;;;;;;;;;;;;3.65;81.03;97400.59;107940;1279;22672;-71
2022/04/25 03:32:58;;;;;;;;;;;;;;;3.67;81.20;97403.92;107938;1279;22653;-71
2022/04/25 03:35:25;;;;;;;;;;;;;;;3.68;81.22;97402.94;107977;1279;23973;-71
2022/04/25 03:37:52;;;;;;;;;;;;;;;3.72;81.43;97402.25;107992;1279;22588;-71
2022/04/25 03:40:19;;;;;;;;;;;;;;;3.74;81.96;97401.26;107894;1280;22561;-71
2022/04/25 03:42:46;;;;;;;;;;;;;;;3.76;82.02;97406.49;107964;1279;22611;-71
2022/04/25 03:45:18;;;;;;;;;;;;;;;3.77;81.81;97406.95;107940;1279;22531;-71
2022/04/25 03:47:45;;;;;;;;;;;;;;;3.75;81.69;97413.80;107945;1278;22522;-71
2022/04/25 03:50:13;;;;;;;;;;;;;;;3.72;81.55;97409.80;107947;1279;22735;-74
2022/04/25 03:52:42;;;;;;;;;;;;;;;3.72;81.22;97414.13;108007;1279;22523;-76
2022/04/25 03:57:59;;;;;;;;;;;;;;;3.74;81.38;97415.91;108002;1278;22545;-74
2022/04/25 04:00:26;;;;;;;;;;;;;;;3.76;81.54;97419.21;108019;1277;22513;-74
2022/04/25 04:02:53;;;;;;;;;;;;;;;3.76;81.75;97422.66;108068;1279;22527;-73
2022/04/25 04:05:20;;;;;;;;;;;;;;;3.75;81.76;97423.89;108075;1279;22595;-72
2022/04/25 04:07:50;;;;;;;;;;;;;;;3.76;81.86;97426.23;108232;1278;22565;-73
2022/04/25 04:10:18;;;;;;;;;;;;;;;3.79;81.82;97429.38;108034;1279;24921;-76
2022/04/25 04:12:46;;;;;;;;;;;;;;;3.81;81.69;97428.58;108053;1279;22529;-72
2022/04/25 04:15:13;;;;;;;;;;;;;;;3.85;81.64;97432.64;108051;1279;24384;-73
2022/04/25 04:17:40;;;;;;;;;;;;;;;3.90;81.28;97431.54;108059;1279;22634;-73
2022/04/25 04:20:08;;;;;;;;;;;;;;;3.95;81.10;97431.20;107945;1279;22603;-73
2022/04/25 04:22:36;;;;;;;;;;;;;;;3.97;81.17;97431.77;107952;1279;22612;-74
2022/04/25 04:25:05;;;;;;;;;;;;;;;4.00;81.56;97430.91;107943;1279;25260;-73
2022/04/25 04:27:32;;;;;;;;;;;;;;;4.04;81.94;97431.55;108008;1279;22544;-78
2022/04/25 04:30:00;;;;;;;;;;;;;;;4.04;82.04;97433.42;107976;1279;25087;-71
2022/04/25 04:32:30;;;;;;;;;;;;;;;4.05;82.14;97433.70;107989;1279;22658;-71
2022/04/25 04:34:57;;;;;;;;;;;;;;;4.07;81.76;97438.08;107937;1279;22530;-70
2022/04/25 04:37:25;;;;;;;;;;;;;;;4.08;81.79;97440.44;107936;1281;22613;-71
2022/04/25 04:42:38;;;;;;;;;;;;;;;4.20;81.62;97441.34;107918;1279;22525;-71
2022/04/25 04:45:05;;;;;;;;;;;;;;;4.27;81.66;97442.30;107939;1279;22525;-70
2022/04/25 04:47:36;;;;;;;;;;;;;;;4.32;81.94;97442.64;107974;1279;22527;-75
2022/04/25 04:50:03;;;;;;;;;;;;;;;4.35;82.19;97445.62;107973;1279;22554;-75
2022/04/25 04:52:30;;;;;;;;;;;;;;;4.36;82.14;97448.12;107893;1279;25237;-77
2022/04/25 04:54:57;;;;;;;;;;;;;;;4.38;82.18;97454.24;107894;1281;24241;-73
2022/04/25 04:57:24;;;;;;;;;;;;;;;4.40;82.17;97455.66;107921;1279;26721;-72
2022/04/25 04:59:50;;;;;;;;;;;;;;;4.42;81.80;97458.30;107920;1281;24320;-72
2022/04/25 05:02:17;;;;;;;;;;;;;;;4.45;81.81;97459.98;107968;1279;22594;-71
2022/04/25 05:04:44;;;;;;;;;;;;;;;4.51;81.50;97464.25;107925;1279;22549;-71
2022/04/25 05:07:11;;;;;;;;;;;;;;;4.58;81.56;97465.61;107950;1279;22536;-73
2022/04/25 05:09:38;;;;;;;;;;;;;;;4.64;81.49;97465.77;107989;1279;22533;-71
2022/04/25 05:12:05;;;;;;;;;;;;;;;4.71;81.91;97467.05;107920;1281;22515;-71
2022/04/25 05:14:32;;;;;;;;;;;;;;;4.78;82.02;97462.33;107960;1279;22543;-74
2022/04/25 05:16:59;;;;;;;;;;;;;;;4.87;82.15;97465.89;107959;1279;22644;-74
2022/04/25 05:19:25;;;;;;;;;;;;;;;5.01;81.90;97464.92;107944;1279;23365;-71
2022/04/25 05:21:52;;;;;;;;;;;;;;;5.14;81.85;97460.63;108043;1278;22653;-71
2022/04/25 05:24:19;;;;;;;;;;;;;;;5.33;81.73;97467.02;108081;1279;22624;-72
2022/04/25 05:26:46;;;;;;;;;;;;;;;5.55;81.85;97461.70;108073;1279;22505;-72
2022/04/25 05:29:14;;;;;;;;;;;;;;;5.79;82.22;97465.34;108060;1279;22521;-72
2022/04/25 05:31:41;;;;;;;;;;;;;;;5.95;82.82;97464.13;108042;1279;25035;-72
2022/04/25 05:34:09;;;;;;;;;;;;;;;6.11;82.76;97461.07;108032;1278;24477;-72
2022/04/25 05:36:35;;;;;;;;;;;;;;;6.30;82.58;97460.45;108064;1279;23109;-71
2022/04/25 05:39:03;;;;;;;;;;;;;;;6.48;82.32;97455.12;108050;1279;22603;-73
2022/04/25 05:41:30;;;;;;;;;;;;;;;6.64;82.05;97457.14;108039;1279;22537;-73
2022/04/25 05:43:57;;;;;;;;;;;;;;;6.81;81.77;97463.41;108016;1279;22548;-71
2022/04/25 05:46:24;;;;;;;;;;;;;;;6.99;81.60;97457.65;108044;1279;25339;-71
2022/04/25 05:54:22;;;;;;;;;;;;;;;7.70;81.35;97465.58;108035;1279;22672;-72
2022/04/25 05:56:48;;;;;;;;;;;;;;;7.89;81.54;97471.70;108057;1279;25303;-74
2022/04/25 05:59:15;;;;;;;;;;;;;;;8.11;81.49;97475.09;108053;1279;24229;-72
2022/04/25 06:01:42;;;;;;;;;;;;;;;8.31;81.80;97480.59;107968;1279;22562;-73
2022/04/25 06:04:09;;;;;;;;;;;;;;;8.47;81.55;97484.89;108066;1279;22550;-72
2022/04/25 06:06:36;;;;;;;;;;;;;;;8.67;81.79;97485.36;108034;1279;22632;-72
2022/04/25 06:09:02;;;;;;;;;;;;;;;8.89;81.77;97484.56;108018;1279;22568;-72
2022/04/25 06:11:29;;;;;;;;;;;;;;;9.14;81.62;97480.36;108044;1279;22511;-74
2022/04/25 06:13:57;;;;;;;;;;;;;;;9.38;81.29;97486.95;108087;1279;22600;-74
2022/04/25 06:16:24;;;;;;;;;;;;;;;9.64;81.04;97484.23;108050;1279;22519;-72
2022/04/25 06:18:51;;;;;;;;;;;;;;;9.90;81.00;97483.88;108024;1279;24382;-71
2022/04/25 06:21:18;;;;;;;;;;;;;;;10.14;80.45;97488.70;108233;1279;22988;-72
2022/04/25 06:23:45;;;;;;;;;;;;;;;10.35;80.89;97491.02;108066;1279;22711;-73
2022/04/25 06:26:12;;;;;;;;;;;;;;;10.51;81.02;97495.39;108061;1279;22844;-71
2022/04/25 06:28:39;;;;;;;;;;;;;;;10.59;80.49;97499.75;108051;1279;22748;-77
2022/04/25 06:31:05;;;;;;;;;;;;;;;10.69;79.95;97495.06;108011;1279;22576;-76
2022/04/25 06:33:32;;;;;;;;;;;;;;;10.81;79.53;97495.83;108008;1279;22860;-75
2022/04/25 06:35:59;;;;;;;;;;;;;;;10.90;78.90;97495.80;108042;1279;22694;-74
2022/04/25 06:38:43;;;;;;;;;;;;;;;10.97;79.44;97498.31;108084;1276;22541;-71
2022/04/25 06:41:28;;;;;;;;;;;;;;;10.98;79.23;97501.71;108042;1279;22577;-72
2022/04/25 06:44:12;;;;;;;;;;;;;;;11.00;79.33;97501.60;108021;1279;22556;-75
2022/04/25 06:46:57;;;;;;;;;;;;;;;11.02;79.18;97502.23;108041;1279;22988;-72
2022/04/25 06:49:41;;;;;;;;;;;;;;;11.07;78.51;97502.73;108086;1279;27587;-74
2022/04/25 06:52:26;;;;;;;;;;;;;;;11.12;78.65;97506.61;108070;1279;25053;-73
2022/04/25 06:55:10;;;;;;;;;;;;;;;11.17;78.95;97505.88;108043;1279;22642;-74
2022/04/25 06:57:55;;;;;;;;;;;;;;;11.14;78.90;97505.74;108046;1279;25306;-72
2022/04/25 07:00:39;;;;;;;;;;;;;;;11.11;78.59;97500.23;108012;1279;22623;-71
2022/04/25 07:03:24;;;;;;;;;;;;;;;11.15;78.30;97503.61;108092;1279;22528;-71
2022/04/25 07:06:08;;;;;;;;;;;;;;;11.19;78.26;97499.90;108066;1277;22544;-74
2022/04/25 07:08:52;;;;;;;;;;;;;;;11.22;78.14;97502.78;108033;1279;23139;-73
2022/04/25 07:11:36;;;;;;;;;;;;;;;11.25;77.69;97495.09;108054;1279;22651;-74
2022/04/25 07:14:23;;;;;;;;;;;;;;;11.32;77.61;97487.84;108067;1279;22672;-70
2022/04/25 07:17:08;;;;;;;;;;;;;;;11.42;77.42;97485.88;108133;1279;22546;-73
2022/04/25 07:19:52;;;;;;;;;;;;;;;11.52;77.31;97489.28;108034;1279;22564;-69
2022/04/25 07:31:09;;;;;;;;;;;;;;;11.88;76.72;97495.48;108040;1279;22593;-72
2022/04/25 07:33:37;;;;;;;;;;;;;;;12.03;76.20;97499.23;108057;1279;22629;-72
2022/04/25 07:36:05;;;;;;;;;;;;;;;12.24;76.23;97498.73;108045;1279;22568;-72
2022/04/25 07:38:32;;;;;;;;;;;;;;;12.45;76.75;97499.65;108041;1279;22592;-71
2022/04/25 07:41:00;;;;;;;;;;;;;;;12.56;76.13;97501.08;108078;1279;24066;-76
2022/04/25 07:43:29;;;;;;;;;;;;;;;12.71;76.26;97500.37;108019;1279;22541;-72
2022/04/25 07:45:56;;;;;;;;;;;;;;;12.83;75.77;97500.52;108040;1279;25654;-73
2022/04/25 07:48:23;;;;;;;;;;;;;;;12.88;74.97;97504.23;108035;1279;22578;-71
2022/04/25 07:50:50;;;;;;;;;;;;;;;12.95;74.54;97505.30;108219;1279;22691;-78
2022/04/25 07:53:17;;;;;;;;;;;;;;;13.05;74.95;97510.51;108027;1279;24262;-78
2022/04/25 07:55:44;;;;;;;;;;;;;;;13.08;74.58;97512.84;108023;1279;23285;-75
2022/04/25 07:58:11;;;;;;;;;;;;;;;13.15;74.72;97517.46;108012;1279;25263;-75
2022/04/25 08:00:40;;;;;;;;;;;;;;;13.21;74.54;97517.44;108032;1279;22542;-77
2022/04/25 08:03:08;;;;;;;;;;;;;;;13.32;74.00;97519.86;108060;1279;23911;-70
2022/04/25 08:05:35;;;;;;;;;;;;;;;13.41;72.97;97521.14;108028;1279;24225;-73
2022/04/25 08:08:02;;;;;;;;;;;;;;;13.51;73.90;97517.20;107994;1279;22524;-78
2022/04/25 08:10:28;;;;;;;;;;;;;;;13.51;73.59;97524.31;108067;1279;23393;-73
2022/04/25 08:18:26;;;;;;;;;;;;;;;13.50;72.86;97528.34;108005;1279;22522;-76
2022/04/25 08:20:53;;;;;;;;;;;;;;;13.47;72.65;97529.64;108018;1279;22762;-76
2022/04/25 08:23:21;;;;;;;;;;;;;;;13.48;71.90;97532.58;108024;1279;22610;-74
2022/04/25 08:25:47;;;;;;;;;;;;;;;13.51;72.42;97529.32;108038;1279;22555;-76
2022/04/25 08:28:15;;;;;;;;;;;;;;;13.55;72.59;97536.29;108077;1279;22645;-74
2022/04/25 08:30:42;;;;;;;;;;;;;;;13.58;72.80;97534.46;108009;1279;22575;-78
2022/04/25 08:33:10;;;;;;;;;;;;;;;13.58;72.43;97541.45;108027;1278;22555;-72
2022/04/25 08:35:38;;;;;;;;;;;;;;;13.58;72.38;97541.56;108030;1279;24291;-72
2022/04/25 08:38:05;;;;;;;;;;;;;;;13.59;72.46;97545.90;108044;1279;22758;-74
2022/04/25 08:40:33;;;;;;;;;;;;;;;13.60;72.80;97547.52;108054;1279;22561;-76
2022/04/25 08:43:03;;;;;;;;;;;;;;;13.64;73.13;97547.85;108032;1279;25462;-74
2022/04/25 08:45:31;;;;;;;;;;;;;;;13.67;72.85;97549.25;108033;1279;22530;-71
2022/04/25 08:47:59;;;;;;;;;;;;;;;13.78;72.69;97548.77;107999;1279;22700;-73
2022/04/25 08:50:30;;;;;;;;;;;;;;;13.87;72.40;97543.66;108036;1279;25278;-74
2022/04/25 08:52:57;;;;;;;;;;;;;;;13.94;71.97;97544.11;108359;1279;22531;-71
2022/04/25 08:55:26;;;;;;;;;;;;;;;13.95;71.89;97546.09;108043;1279;23216;-73
2022/04/25 08:57:54;;;;;;;;;;;;;;;13.95;71.88;97546.61;108035;1279;22539;-73
2022/04/25 09:00:20;;;;;;;;;;;;;;;13.91;71.74;97551.19;108024;1279;22593;-71
2022/04/25 09:02:49;;;;;;;;;;;;;;;13.86;71.69;97553.20;108039;1278;26631;-75
2022/04/25 09:05:16;;;;;;;;;;;;;;;13.82;71.74;97553.24;108035;1279;22521;-77
2022/04/25 09:07:43;;;;;;;;;;;;;;;13.79;71.39;97554.94;108047;1279;24385;-76
2022/04/25 09:10:12;;;;;;;;;;;;;;;13.73;70.81;97556.58;108023;1279;22666;-75
2022/04/25 09:12:41;;;;;;;;;;;;;;;13.68;70.68;97556.93;108019;1279;22525;-75
2022/04/25 09:15:09;;;;;;;;;;;;;;;13.63;70.59;97557.05;108035;1279;24225;-74
2022/04/25 09:17:39;;;;;;;;;;;;;;;13.60;70.23;97564.17;108034;1278;23103;-76
2022/04/25 09:20:07;;;;;;;;;;;;;;;13.63;70.44;97562.41;108027;1279;23919;-85
2022/04/25 09:22:35;;;;;;;;;;;;;;;13.65;70.43;97566.58;108074;1279;22537;-75
2022/04/25 09:25:05;;;;;;;;;;;;;;;13.71;70.33;97569.83;108034;1279;25284;-76
2022/04/25 09:27:32;;;;;;;;;;;;;;;13.70;70.41;97575.06;108064;1279;22529;-78
2022/04/25 09:30:19;;;;;;;;;;;;;;;13.71;71.09;97570.59;108089;1279;22554;-74
2022/04/25 09:32:46;;;;;;;;;;;;;;;13.68;71.17;97578.04;108032;1279;22537;-71
2022/04/25 09:35:42;;;;;;;;;;;;;;;13.70;70.87;97577.30;108027;1279;22554;-73
2022/04/25 09:38:10;;;;;;;;;;;;;;;13.76;70.34;97579.91;108031;1279;22607;-72
2022/04/25 09:40:38;;;;;;;;;;;;;;;13.77;69.90;97585.40;108052;1279;27724;-72
2022/04/25 09:43:11;;;;;;;;;;;;;;;13.85;69.95;97581.89;108264;1279;22598;-71
2022/04/25 09:45:41;;;;;;;;;;;;;;;14.03;69.95;97579.77;108303;1279;22612;-79
2022/04/25 09:48:18;;;;;;;;;;;;;;;14.20;69.65;97584.92;108316;1279;23959;-71
2022/04/25 09:50:58;;;;;;;;;;;;;;;14.35;68.75;97586.63;108337;1279;22542;-72
2022/04/25 09:53:44;;;;;;;;;;;;;;;14.50;68.91;97585.98;108205;1279;22575;-72
2022/04/25 09:56:12;;;;;;;;;;;;;;;14.65;68.48;97589.94;108230;1279;22667;-72
2022/04/25 09:58:40;;;;;;;;;;;;;;;14.79;68.63;97591.61;108280;1279;22604;-71
2022/04/25 10:01:11;;;;;;;;;;;;;;;14.90;67.91;97591.47;108260;1279;22607;-73
2022/04/25 10:03:38;;;;;;;;;;;;;;;14.94;66.39;97594.17;108259;1279;22544;-73
2022/04/25 10:06:05;;;;;;;;;;;;;;;15.09;67.04;97592.69;108290;1279;22595;-72
2022/04/25 10:08:34;;;;;;;;;;;;;;;15.17;67.00;97591.72;108301;1279;22678;-72
2022/04/25 10:11:02;;;;;;;;;;;;;;;15.24;66.70;97588.73;108308;1279;25411;-72
2022/04/25 10:13:31;;;;;;;;;;;;;;;15.27;66.71;97589.66;108312;1279;22610;-71
2022/04/25 10:15:58;;;;;;;;;;;;;;;15.29;66.53;97595.03;108299;1279;22604;-72
2022/04/25 10:18:26;;;;;;;;;;;;;;;15.12;65.73;97598.20;108306;1279;22518;-74
2022/04/25 10:20:53;;;;;;;;;;;;;;;14.87;65.85;97601.17;108302;1279;22598;-71
2022/04/25 10:23:20;;;;;;;;;;;;;;;14.66;66.01;97601.15;108312;1279;22633;-72
2022/04/25 10:25:50;;;;;;;;;;;;;;;14.52;65.80;97603.41;108292;1279;22575;-71
2022/04/25 10:28:33;;;;;;;;;;;;;;;14.36;65.50;97608.33;108310;1279;22640;-71
2022/04/25 10:31:29;;;;;;;;;;;;;;;14.10;65.03;97608.67;108284;1279;22613;-71
2022/04/25 10:33:58;;;;;;;;;;;;;;;13.80;65.56;97616.59;108043;1279;22601;-72
2022/04/25 10:36:45;;;;;;;;;;;;;;;13.57;65.56;97616.21;108279;1279;22625;-72
2022/04/25 10:39:27;;;;;;;;;;;;;;;13.31;65.66;97616.02;108297;1279;22561;-74
2022/04/25 10:44:42;;;;;;;;;;;;;;;12.89;65.99;97623.33;108293;1279;22602;-73
2022/04/25 10:47:19;;;;;;;;;;;;;;;12.75;66.33;97624.04;108331;1279;22987;-72
2022/04/25 10:49:47;;;;;;;;;;;;;;;12.64;67.07;97627.13;108310;1279;22634;-72
2022/04/25 10:55:19;;;;;;;;;;;;;;;12.50;68.63;97632.79;108308;1279;24259;-72
2022/04/25 10:58:02;;;;;;;;;;;;;;;12.40;68.51;97632.73;108295;1279;22627;-76
2022/04/25 11:03:06;;;;;;;;;;;;;;;12.34;68.87;97636.45;108313;1279;24326;-70
2022/04/25 11:05:40;;;;;;;;;;;;;;;12.31;68.53;97639.31;108306;1279;25242;-70
2022/04/25 11:08:16;;;;;;;;;;;;;;;12.25;68.86;97645.63;108290;1279;22856;-74
2022/04/25 11:10:49;;;;;;;;;;;;;;;12.22;68.90;97643.45;108282;1279;23201;-72
2022/04/25 11:13:19;;;;;;;;;;;;;;;12.22;69.55;97643.98;108291;1279;22617;-71
2022/04/25 11:15:47;;;;;;;;;;;;;;;12.22;70.23;97646.95;108289;1279;22560;-73
2022/04/25 11:18:33;;;;;;;;;;;;;;;12.26;70.58;97648.09;108288;1279;22504;-72
2022/04/25 11:21:05;;;;;;;;;;;;;;;12.37;71.00;97649.98;108308;1279;22558;-73
2022/04/25 11:23:33;;;;;;;;;;;;;;;12.52;70.61;97652.52;108310;1279;25421;-74
2022/04/25 11:26:01;;;;;;;;;;;;;;;12.69;71.04;97656.59;108287;1279;22681;-74
2022/04/25 11:28:28;;;;;;;;;;;;;;;12.97;70.80;97657.13;108295;1279;22586;-71
2022/04/25 11:31:14;;;;;;;;;;;;;;;13.41;70.68;97660.48;108289;1279;24091;-75
2022/04/25 11:33:44;;;;;;;;;;;;;;;14.03;70.77;97661.02;108322;1279;22534;-72
2022/04/25 11:36:11;;;;;;;;;;;;;;;14.45;70.85;97658.27;108296;1279;22689;-74
2022/04/25 11:41:24;;;;;;;;;;;;;;;15.09;71.53;97663.73;108189;1279;22617;-72
2022/04/25 11:43:51;;;;;;;;;;;;;;;15.15;71.67;97665.91;108266;1279;22670;-75
2022/04/25 11:46:18;;;;;;;;;;;;;;;15.15;70.31;97667.17;108288;1279;25468;-75
2022/04/25 11:48:51;;;;;;;;;;;;;;;15.17;70.16;97670.08;108280;1279;22539;-73
2022/04/25 11:51:25;;;;;;;;;;;;;;;15.27;69.85;97672.43;108297;1279;22598;-75
2022/04/25 11:53:53;;;;;;;;;;;;;;;15.40;69.43;97673.75;108318;1279;22540;-73
2022/04/25 11:56:23;;;;;;;;;;;;;;;15.33;69.43;97675.50;108327;1279;22520;-75
2022/04/25 11:58:50;;;;;;;;;;;;;;;15.05;68.78;97680.02;108315;1279;24394;-76
2022/04/25 12:01:33;;;;;;;;;;;;;;;14.69;68.71;97686.93;108328;1279;22524;-73
2022/04/25 12:04:19;;;;;;;;;;;;;;;14.36;68.00;97696.39;108296;1279;22599;-75
2022/04/25 12:06:53;;;;;;;;;;;;;;;13.96;68.31;97702.95;108267;1279;25280;-71
2022/04/25 12:17:43;;;;;;;;;;;;;;;12.69;68.81;97722.96;108011;1280;22519;-74
2022/04/25 12:20:14;;;;;;;;;;;;;;;12.48;68.74;97726.02;108000;1279;22681;-72
2022/04/25 12:22:51;;;;;;;;;;;;;;;12.31;68.67;97725.06;108032;1280;22689;-71
2022/04/25 12:25:23;;;;;;;;;;;;;;;12.19;69.07;97727.27;108063;1279;23516;-71
2022/04/25 12:28:07;;;;;;;;;;;;;;;12.18;69.37;97729.34;108019;1280;22636;-73
2022/04/25 12:30:46;;;;;;;;;;;;;;;12.23;68.96;97734.08;108053;1279;22557;-71
2022/04/25 12:33:14;;;;;;;;;;;;;;;12.19;69.50;97736.92;108013;1280;22597;-75
2022/04/25 12:35:42;;;;;;;;;;;;;;;12.05;69.80;97741.95;108021;1280;22533;-70
2022/04/25 12:38:09;;;;;;;;;;;;;;;11.96;70.27;97743.23;108035;1280;22521;-73
2022/04/25 12:40:56;;;;;;;;;;;;;;;11.97;70.40;97744.73;107997;1279;23210;-73
2022/04/25 12:43:38;;;;;;;;;;;;;;;11.92;70.23;97751.77;108016;1281;22525;-73
2022/04/25 12:46:07;;;;;;;;;;;;;;;11.90;70.10;97754.77;108028;1279;22696;-73
2022/04/25 12:48:52;;;;;;;;;;;;;;;11.83;69.93;97756.02;108009;1281;22603;-73
2022/04/25 12:51:33;;;;;;;;;;;;;;;11.75;69.81;97758.07;108037;1280;22645;-73
2022/04/25 12:54:00;;;;;;;;;;;;;;;11.61;69.83;97762.39;108049;1280;22735;-77
2022/04/25 12:56:32;;;;;;;;;;;;;;;11.46;69.95;97762.77;108006;1279;22755;-74
2022/04/25 12:58:59;;;;;;;;;;;;;;;11.34;69.87;97766.23;108027;1281;25495;-74
2022/04/25 13:01:29;;;;;;;;;;;;;;;11.27;70.31;97769.52;108058;1280;22807;-73
2022/04/25 13:04:16;;;;;;;;;;;;;;;11.28;70.15;97771.02;108011;1281;22549;-74
2022/04/25 13:06:44;;;;;;;;;;;;;;;11.33;69.72;97773.10;108030;1279;22600;-71
2022/04/25 13:09:11;;;;;;;;;;;;;;;11.39;69.69;97770.67;108019;1279;22528;-71
2022/04/25 13:11:38;;;;;;;;;;;;;;;11.40;70.56;97770.60;107987;1280;22515;-70
2022/04/25 13:14:07;;;;;;;;;;;;;;;11.44;70.85;97771.30;108055;1280;23958;-70
2022/04/25 13:16:33;;;;;;;;;;;;;;;11.43;70.95;97770.52;108024;1281;22557;-71
2022/04/25 13:19:00;;;;;;;;;;;;;;;11.48;70.88;97773.23;108041;1279;22613;-69
2022/04/25 13:21:27;;;;;;;;;;;;;;;11.56;70.70;97774.80;108042;1281;22531;-69
2022/04/25 13:23:54;;;;;;;;;;;;;;;11.64;70.31;97776.96;107996;1281;23271;-69
2022/04/25 13:26:21;;;;;;;;;;;;;;;11.65;70.29;97779.10;108025;1281;23381;-69
2022/04/25 13:28:48;;;;;;;;;;;;;;;11.65;70.33;97782.38;108050;1280;22522;-70
2022/04/25 13:31:15;;;;;;;;;;;;;;;11.70;70.10;97784.85;108012;1279;22581;-70
2022/04/25 13:33:43;;;;;;;;;;;;;;;11.78;69.92;97784.70;108006;1281;22605;-70
2022/04/25 13:36:10;;;;;;;;;;;;;;;11.84;69.76;97787.50;107995;1281;24420;-69
2022/04/25 13:38:36;;;;;;;;;;;;;;;11.86;69.54;97788.92;108033;1281;22521;-70
2022/04/25 13:41:04;;;;;;;;;;;;;;;11.81;69.59;97792.64;108077;1280;22672;-69
2022/04/25 13:43:32;;;;;;;;;;;;;;;11.77;69.64;97790.71;108036;1280;22545;-70
2022/04/25 13:45:59;;;;;;;;;;;;;;;11.69;69.63;97794.12;108037;1280;22614;-69